createdAt,value
2022-09-02T00:00:22.755Z,16.27
2022-09-02T00:00:58.237Z,16.40
2022-09-02T00:01:33.534Z,16.27
2022-09-02T00:02:08.902Z,16.25
2022-09-02T00:02:43.923Z,16.23
2022-09-02T00:03:18.969Z,16.23
2022-09-02T00:03:54.173Z,16.30
2022-09-02T00:04:29.396Z,16.26
2022-09-02T00:05:04.683Z,16.23
2022-09-02T00:05:39.890Z,16.30
2022-09-02T00:06:14.976Z,16.27
2022-09-02T00:06:50.484Z,16.22
2022-09-02T00:07:25.667Z,16.26
2022-09-02T00:08:01.175Z,16.26
2022-09-02T00:08:36.207Z,16.15
2022-09-02T00:09:11.399Z,16.25
2022-09-02T00:09:46.590Z,16.25
2022-09-02T00:10:21.627Z,16.15
2022-09-02T00:10:56.711Z,16.27
2022-09-02T00:11:31.963Z,16.18
2022-09-02T00:12:07.240Z,16.16
2022-09-02T00:12:42.454Z,16.23
2022-09-02T00:13:17.682Z,16.26
2022-09-02T00:13:53.153Z,16.20
2022-09-02T00:14:28.356Z,16.22
2022-09-02T00:15:03.501Z,16.15
2022-09-02T00:15:38.994Z,16.14
2022-09-02T00:16:14.404Z,16.15
2022-09-02T00:16:49.532Z,16.18
2022-09-02T00:17:24.777Z,16.16
2022-09-02T00:17:59.843Z,16.20
2022-09-02T00:18:35.069Z,16.18
2022-09-02T00:19:10.664Z,16.11
2022-09-02T00:19:45.784Z,16.15
2022-09-02T00:20:20.969Z,16.16
2022-09-02T00:20:56.203Z,16.18
2022-09-02T00:21:31.394Z,16.30
2022-09-02T00:22:06.798Z,16.15
2022-09-02T00:22:41.792Z,16.20
2022-09-02T00:23:17.136Z,16.12
2022-09-02T00:23:52.321Z,16.20
2022-09-02T00:24:27.472Z,16.16
2022-09-02T00:25:02.959Z,16.09
2022-09-02T00:25:38.184Z,16.14
2022-09-02T00:26:13.630Z,16.23
2022-09-02T00:26:48.873Z,16.14
2022-09-02T00:27:24.166Z,16.15
2022-09-02T00:27:59.374Z,16.12
2022-09-02T00:28:34.578Z,16.15
2022-09-02T00:29:10.100Z,16.12
2022-09-02T00:29:45.383Z,16.11
2022-09-02T00:30:20.409Z,16.12
2022-09-02T00:30:55.428Z,16.12
2022-09-02T00:31:30.808Z,16.15
2022-09-02T00:32:05.991Z,16.14
2022-09-02T00:32:41.549Z,16.11
2022-09-02T00:33:16.653Z,16.16
2022-09-02T00:33:51.873Z,16.12
2022-09-02T00:34:27.062Z,16.07
2022-09-02T00:35:02.200Z,16.14
2022-09-02T00:35:37.215Z,16.15
2022-09-02T00:36:15.641Z,16.11
2022-09-02T00:36:51.050Z,16.20
2022-09-02T00:37:26.265Z,16.14
2022-09-02T00:38:01.667Z,16.12
2022-09-02T00:38:36.773Z,16.11
2022-09-02T00:39:12.072Z,16.12
2022-09-02T00:39:47.315Z,16.14
2022-09-02T00:40:22.635Z,16.14
2022-09-02T00:40:57.950Z,16.16
2022-09-02T00:41:33.242Z,16.11
2022-09-02T00:42:08.649Z,16.12
2022-09-02T00:42:43.657Z,16.07
2022-09-02T00:43:19.024Z,16.12
2022-09-02T00:43:54.440Z,16.11
2022-09-02T00:44:29.964Z,16.12
2022-09-02T00:45:05.353Z,16.18
2022-09-02T00:45:40.535Z,16.01
2022-09-02T00:46:15.753Z,16.07
2022-09-02T00:46:50.822Z,16.04
2022-09-02T00:47:26.210Z,16.07
2022-09-02T00:48:01.438Z,16.04
2022-09-02T00:48:36.590Z,16.12
2022-09-02T00:49:11.916Z,15.97
2022-09-02T00:49:47.047Z,16.12
2022-09-02T00:50:22.595Z,15.99
2022-09-02T00:50:58.237Z,16.12
2022-09-02T00:51:33.652Z,16.18
2022-09-02T00:52:08.676Z,16.06
2022-09-02T00:52:44.023Z,16.03
2022-09-02T00:53:19.281Z,16.12
2022-09-02T00:53:54.553Z,16.04
2022-09-02T00:54:29.667Z,16.06
2022-09-02T00:55:05.101Z,16.04
2022-09-02T00:55:40.190Z,16.03
2022-09-02T00:56:15.514Z,16.07
2022-09-02T00:56:50.725Z,16.07
2022-09-02T00:57:25.960Z,16.06
2022-09-02T00:58:01.264Z,16.06
2022-09-02T00:58:36.486Z,16.12
2022-09-02T00:59:11.887Z,15.96
2022-09-02T00:59:47.433Z,16.03
2022-09-02T01:00:22.529Z,16.09
2022-09-02T01:00:57.794Z,16.06
2022-09-02T01:01:33.045Z,16.09
2022-09-02T01:02:08.337Z,16.04
2022-09-02T01:02:43.542Z,16.07
2022-09-02T01:03:18.716Z,15.92
2022-09-02T01:03:53.782Z,16.00
2022-09-02T01:04:28.889Z,16.04
2022-09-02T01:05:04.125Z,16.03
2022-09-02T01:05:43.627Z,15.97
2022-09-02T01:06:14.536Z,15.96
2022-09-02T01:06:49.986Z,16.03
2022-09-02T01:07:25.187Z,16.00
2022-09-02T01:08:00.405Z,16.04
2022-09-02T01:08:35.599Z,16.03
2022-09-02T01:09:10.720Z,15.97
2022-09-02T01:09:45.906Z,15.94
2022-09-02T01:10:21.328Z,16.01
2022-09-02T01:10:57.040Z,16.03
2022-09-02T01:11:32.375Z,16.04
2022-09-02T01:12:07.629Z,15.97
2022-09-02T01:12:43.159Z,16.03
2022-09-02T01:13:18.414Z,15.97
2022-09-02T01:13:53.482Z,16.06
2022-09-02T01:14:28.799Z,15.99
2022-09-02T01:15:04.070Z,15.89
2022-09-02T01:15:39.379Z,15.94
2022-09-02T01:16:14.948Z,15.96
2022-09-02T01:16:50.445Z,15.94
2022-09-02T01:17:25.722Z,15.93
2022-09-02T01:18:01.065Z,15.88
2022-09-02T01:18:36.423Z,15.89
2022-09-02T01:19:11.611Z,15.97
2022-09-02T01:19:46.801Z,15.96
2022-09-02T01:20:25.603Z,15.86
2022-09-02T01:20:57.230Z,15.93
2022-09-02T01:21:32.415Z,15.89
2022-09-02T01:22:07.942Z,15.94
2022-09-02T01:22:43.309Z,15.89
2022-09-02T01:23:18.576Z,15.88
2022-09-02T01:23:54.066Z,15.94
2022-09-02T01:24:29.483Z,15.93
2022-09-02T01:25:04.903Z,16.00
2022-09-02T01:25:40.105Z,15.99
2022-09-02T01:26:15.528Z,16.00
2022-09-02T01:26:51.082Z,15.99
2022-09-02T01:27:26.304Z,15.96
2022-09-02T01:28:01.436Z,15.94
2022-09-02T01:28:36.777Z,15.93
2022-09-02T01:29:12.192Z,15.96
2022-09-02T01:29:47.313Z,15.92
2022-09-02T01:30:22.517Z,15.94
2022-09-02T01:30:57.527Z,15.86
2022-09-02T01:31:32.755Z,15.96
2022-09-02T01:32:08.087Z,15.97
2022-09-02T01:32:43.587Z,15.99
2022-09-02T01:33:18.854Z,15.89
2022-09-02T01:33:53.818Z,16.00
2022-09-02T01:34:29.060Z,15.96
2022-09-02T01:35:04.363Z,15.96
2022-09-02T01:35:39.908Z,15.94
2022-09-02T01:36:14.922Z,15.89
2022-09-02T01:36:50.292Z,15.93
2022-09-02T01:37:25.416Z,15.92
2022-09-02T01:38:00.619Z,15.96
2022-09-02T01:38:35.861Z,15.94
2022-09-02T01:39:11.195Z,15.99
2022-09-02T01:39:46.638Z,16.03
2022-09-02T01:40:21.885Z,15.94
2022-09-02T01:40:57.305Z,15.92
2022-09-02T01:41:32.622Z,15.93
2022-09-02T01:42:07.768Z,16.00
2022-09-02T01:42:43.191Z,16.00
2022-09-02T01:43:18.447Z,15.97
2022-09-02T01:43:53.646Z,15.94
2022-09-02T01:44:28.664Z,15.93
2022-09-02T01:45:04.009Z,15.93
2022-09-02T01:45:39.637Z,15.94
2022-09-02T01:46:15.078Z,15.94
2022-09-02T01:46:50.733Z,15.96
2022-09-02T01:47:26.093Z,15.92
2022-09-02T01:48:01.222Z,16.01
2022-09-02T01:48:36.431Z,15.99
2022-09-02T01:49:11.461Z,15.99
2022-09-02T01:49:46.896Z,16.04
2022-09-02T01:50:22.086Z,15.96
2022-09-02T01:50:57.104Z,15.99
2022-09-02T01:51:32.319Z,15.93
2022-09-02T01:52:07.355Z,15.93
2022-09-02T01:52:42.653Z,15.99
2022-09-02T01:53:17.941Z,15.96
2022-09-02T01:53:53.040Z,15.94
2022-09-02T01:54:28.180Z,15.93
2022-09-02T01:55:03.873Z,16.00
2022-09-02T01:55:39.192Z,15.88
2022-09-02T01:56:14.511Z,15.92
2022-09-02T01:56:49.914Z,15.93
2022-09-02T01:57:25.332Z,15.96
2022-09-02T01:58:00.723Z,15.85
2022-09-02T01:58:36.246Z,15.88
2022-09-02T01:59:11.751Z,16.01
2022-09-02T01:59:47.372Z,15.89
2022-09-02T02:00:22.497Z,15.94
2022-09-02T02:00:57.583Z,15.96
2022-09-02T02:01:32.717Z,15.94
2022-09-02T02:02:08.332Z,15.93
2022-09-02T02:02:43.458Z,15.99
2022-09-02T02:03:18.405Z,16.03
2022-09-02T02:03:53.722Z,16.01
2022-09-02T02:04:29.055Z,15.93
2022-09-02T02:05:04.201Z,15.99
2022-09-02T02:05:39.311Z,16.03
2022-09-02T02:06:14.336Z,16.01
2022-09-02T02:06:52.497Z,15.92
2022-09-02T02:07:24.793Z,15.96
2022-09-02T02:07:59.985Z,15.97
2022-09-02T02:08:35.434Z,16.00
2022-09-02T02:09:10.863Z,15.93
2022-09-02T02:09:45.985Z,15.97
2022-09-02T02:10:21.279Z,16.04
2022-09-02T02:10:56.597Z,15.97
2022-09-02T02:11:31.995Z,15.99
2022-09-02T02:12:06.999Z,16.00
2022-09-02T02:12:42.170Z,15.99
2022-09-02T02:13:17.469Z,16.00
2022-09-02T02:13:53.183Z,15.96
2022-09-02T02:14:28.815Z,15.99
2022-09-02T02:15:04.033Z,15.99
2022-09-02T02:15:39.001Z,15.92
2022-09-02T02:16:14.003Z,15.99
2022-09-02T02:16:49.186Z,15.99
2022-09-02T02:17:24.703Z,16.00
2022-09-02T02:17:59.927Z,16.06
2022-09-02T02:18:35.127Z,15.97
2022-09-02T02:19:10.448Z,16.01
2022-09-02T02:19:45.582Z,16.03
2022-09-02T02:20:21.005Z,16.04
2022-09-02T02:20:56.523Z,16.00
2022-09-02T02:21:31.844Z,16.04
2022-09-02T02:22:07.047Z,16.03
2022-09-02T02:22:42.148Z,16.04
2022-09-02T02:23:17.481Z,16.04
2022-09-02T02:23:52.764Z,15.99
2022-09-02T02:24:27.999Z,15.99
2022-09-02T02:25:03.118Z,15.99
2022-09-02T02:25:38.142Z,15.96
2022-09-02T02:26:13.585Z,16.01
2022-09-02T02:26:48.995Z,15.99
2022-09-02T02:27:24.116Z,15.99
2022-09-02T02:27:59.322Z,15.97
2022-09-02T02:28:34.751Z,15.96
2022-09-02T02:29:10.073Z,15.99
2022-09-02T02:29:45.328Z,16.03
2022-09-02T02:30:20.838Z,15.97
2022-09-02T02:30:56.647Z,16.00
2022-09-02T02:31:31.889Z,15.94
2022-09-02T02:32:07.084Z,15.94
2022-09-02T02:32:42.300Z,15.93
2022-09-02T02:33:17.694Z,15.97
2022-09-02T02:33:52.854Z,16.04
2022-09-02T02:34:27.971Z,16.00
2022-09-02T02:35:03.274Z,15.94
2022-09-02T02:35:38.486Z,16.01
2022-09-02T02:36:13.630Z,15.93
2022-09-02T02:36:48.863Z,16.01
2022-09-02T02:37:25.659Z,15.96
2022-09-02T02:37:59.645Z,15.99
2022-09-02T02:38:34.841Z,15.96
2022-09-02T02:39:09.981Z,15.94
2022-09-02T02:39:45.193Z,15.94
2022-09-02T02:40:20.454Z,16.00
2022-09-02T02:40:55.430Z,15.96
2022-09-02T02:41:30.765Z,15.86
2022-09-02T02:42:06.200Z,15.84
2022-09-02T02:42:41.525Z,15.94
2022-09-02T02:43:17.023Z,15.94
2022-09-02T02:43:52.339Z,15.97
2022-09-02T02:44:27.378Z,15.94
2022-09-02T02:45:02.381Z,15.86
2022-09-02T02:45:37.547Z,16.01
2022-09-02T02:46:12.883Z,15.93
2022-09-02T02:46:48.217Z,15.93
2022-09-02T02:47:23.301Z,15.88
2022-09-02T02:47:58.414Z,15.89
2022-09-02T02:48:33.867Z,15.86
2022-09-02T02:49:09.102Z,15.89
2022-09-02T02:49:44.314Z,15.93
2022-09-02T02:50:19.420Z,15.86
2022-09-02T02:50:54.937Z,15.86
2022-09-02T02:51:30.087Z,15.92
2022-09-02T02:52:05.288Z,15.88
2022-09-02T02:52:40.552Z,15.94
2022-09-02T02:53:15.973Z,15.92
2022-09-02T02:53:53.022Z,15.92
2022-09-02T02:54:34.866Z,15.81
2022-09-02T02:55:01.534Z,15.89
2022-09-02T02:55:36.862Z,15.89
2022-09-02T02:56:12.170Z,15.88
2022-09-02T02:56:47.290Z,15.89
2022-09-02T02:57:22.886Z,15.88
2022-09-02T02:57:58.147Z,15.85
2022-09-02T02:58:33.250Z,15.81
2022-09-02T02:59:08.551Z,15.85
2022-09-02T02:59:43.762Z,15.82
2022-09-02T03:00:19.070Z,15.79
2022-09-02T03:00:54.193Z,15.84
2022-09-02T03:01:29.006Z,15.92
2022-09-02T03:02:04.243Z,15.82
2022-09-02T03:02:39.488Z,15.81
2022-09-02T03:03:15.004Z,15.86
2022-09-02T03:03:50.320Z,15.88
2022-09-02T03:04:25.725Z,15.78
2022-09-02T03:05:00.845Z,15.88
2022-09-02T03:05:36.134Z,15.86
2022-09-02T03:06:11.766Z,15.86
2022-09-02T03:06:46.973Z,15.81
2022-09-02T03:07:22.171Z,15.88
2022-09-02T03:07:57.375Z,15.76
2022-09-02T03:08:32.509Z,15.85
2022-09-02T03:09:07.649Z,15.82
2022-09-02T03:09:42.793Z,15.85
2022-09-02T03:10:18.232Z,15.88
2022-09-02T03:10:53.366Z,15.84
2022-09-02T03:11:28.422Z,15.84
2022-09-02T03:12:03.814Z,15.86
2022-09-02T03:12:38.939Z,15.82
2022-09-02T03:13:14.312Z,15.89
2022-09-02T03:13:49.802Z,15.82
2022-09-02T03:14:25.282Z,15.82
2022-09-02T03:15:00.622Z,15.81
2022-09-02T03:15:35.929Z,15.81
2022-09-02T03:16:11.202Z,15.81
2022-09-02T03:16:46.271Z,15.85
2022-09-02T03:17:21.590Z,15.72
2022-09-02T03:17:56.728Z,15.78
2022-09-02T03:18:31.821Z,15.81
2022-09-02T03:19:07.361Z,15.76
2022-09-02T03:19:42.371Z,15.85
2022-09-02T03:20:17.795Z,15.75
2022-09-02T03:20:52.893Z,15.82
2022-09-02T03:21:28.004Z,15.82
2022-09-02T03:22:03.243Z,15.81
2022-09-02T03:22:38.447Z,15.84
2022-09-02T03:23:13.917Z,15.78
2022-09-02T03:23:49.061Z,15.88
2022-09-02T03:24:24.188Z,15.72
2022-09-02T03:24:59.401Z,15.79
2022-09-02T03:25:36.068Z,15.78
2022-09-02T03:26:10.142Z,15.70
2022-09-02T03:26:45.253Z,15.72
2022-09-02T03:27:20.280Z,15.76
2022-09-02T03:27:55.524Z,15.79
2022-09-02T03:28:30.735Z,15.74
2022-09-02T03:29:05.844Z,15.75
2022-09-02T03:29:41.178Z,15.79
2022-09-02T03:30:16.701Z,15.72
2022-09-02T03:30:52.386Z,15.75
2022-09-02T03:31:27.796Z,15.74
2022-09-02T03:32:02.993Z,15.70
2022-09-02T03:32:38.095Z,15.72
2022-09-02T03:33:13.503Z,15.74
2022-09-02T03:33:48.913Z,15.76
2022-09-02T03:34:24.488Z,15.70
2022-09-02T03:34:59.710Z,15.67
2022-09-02T03:35:35.210Z,15.78
2022-09-02T03:36:10.614Z,15.70
2022-09-02T03:36:45.951Z,15.70
2022-09-02T03:37:21.139Z,15.70
2022-09-02T03:37:56.461Z,15.70
2022-09-02T03:38:31.672Z,15.66
2022-09-02T03:39:09.943Z,15.68
2022-09-02T03:39:42.138Z,15.74
2022-09-02T03:40:17.546Z,15.67
2022-09-02T03:40:53.146Z,15.63
2022-09-02T03:41:28.414Z,15.70
2022-09-02T03:42:03.539Z,15.64
2022-09-02T03:42:38.854Z,15.72
2022-09-02T03:43:14.351Z,15.64
2022-09-02T03:43:49.602Z,15.63
2022-09-02T03:44:24.723Z,15.72
2022-09-02T03:45:00.125Z,15.63
2022-09-02T03:45:35.393Z,15.63
2022-09-02T03:46:10.568Z,15.63
2022-09-02T03:46:45.946Z,15.57
2022-09-02T03:47:21.271Z,15.59
2022-09-02T03:47:56.682Z,15.64
2022-09-02T03:48:31.919Z,15.60
2022-09-02T03:49:07.162Z,15.60
2022-09-02T03:49:43.757Z,15.63
2022-09-02T03:50:18.240Z,15.64
2022-09-02T03:50:53.648Z,15.56
2022-09-02T03:51:28.565Z,15.56
2022-09-02T03:52:03.994Z,15.56
2022-09-02T03:52:39.311Z,15.51
2022-09-02T03:53:19.348Z,15.59
2022-09-02T03:53:49.830Z,15.51
2022-09-02T03:54:25.143Z,15.45
2022-09-02T03:55:00.354Z,15.42
2022-09-02T03:55:35.795Z,15.42
2022-09-02T03:56:11.185Z,15.51
2022-09-02T03:56:46.365Z,15.49
2022-09-02T03:57:21.475Z,15.42
2022-09-02T03:57:56.680Z,15.48
2022-09-02T03:58:32.012Z,15.49
2022-09-02T03:59:07.323Z,15.42
2022-09-02T03:59:42.542Z,15.42
2022-09-02T04:00:17.875Z,15.36
2022-09-02T04:00:53.506Z,15.41
2022-09-02T04:01:34.398Z,15.42
2022-09-02T04:02:04.309Z,15.42
2022-09-02T04:02:39.377Z,15.42
2022-09-02T04:03:14.423Z,15.45
2022-09-02T04:03:49.468Z,15.42
2022-09-02T04:04:25.082Z,15.45
2022-09-02T04:05:00.497Z,15.33
2022-09-02T04:05:35.837Z,15.39
2022-09-02T04:06:11.163Z,15.39
2022-09-02T04:06:46.460Z,15.28
2022-09-02T04:07:21.667Z,15.35
2022-09-02T04:07:56.870Z,15.42
2022-09-02T04:08:32.189Z,15.36
2022-09-02T04:09:07.619Z,15.46
2022-09-02T04:09:46.707Z,15.30
2022-09-02T04:10:19.471Z,15.35
2022-09-02T04:10:54.824Z,15.33
2022-09-02T04:11:30.042Z,15.30
2022-09-02T04:12:05.558Z,15.31
2022-09-02T04:12:40.675Z,15.31
2022-09-02T04:13:15.994Z,15.27
2022-09-02T04:13:51.304Z,15.26
2022-09-02T04:14:33.526Z,15.38
2022-09-02T04:15:09.391Z,15.30
2022-09-02T04:15:44.962Z,15.27
2022-09-02T04:16:20.293Z,15.28
2022-09-02T04:16:55.862Z,15.35
2022-09-02T04:17:31.125Z,15.26
2022-09-02T04:18:06.574Z,15.28
2022-09-02T04:18:41.903Z,15.26
2022-09-02T04:19:17.410Z,15.21
2022-09-02T04:19:52.739Z,15.23
2022-09-02T04:20:28.049Z,15.28
2022-09-02T04:21:03.774Z,15.31
2022-09-02T04:21:39.035Z,15.21
2022-09-02T04:22:14.246Z,15.30
2022-09-02T04:22:49.564Z,15.17
2022-09-02T04:23:24.568Z,15.23
2022-09-02T04:23:59.823Z,15.20
2022-09-02T04:24:35.057Z,15.24
2022-09-02T04:25:10.291Z,15.20
2022-09-02T04:25:45.499Z,15.19
2022-09-02T04:26:20.726Z,15.17
2022-09-02T04:26:58.493Z,15.17
2022-09-02T04:27:31.443Z,15.17
2022-09-02T04:28:07.200Z,15.15
2022-09-02T04:28:42.498Z,15.17
2022-09-02T04:29:17.639Z,15.15
2022-09-02T04:29:52.855Z,15.15
2022-09-02T04:30:28.286Z,15.20
2022-09-02T04:31:04.089Z,15.13
2022-09-02T04:31:39.397Z,15.19
2022-09-02T04:32:14.462Z,15.12
2022-09-02T04:32:49.684Z,15.08
2022-09-02T04:33:24.929Z,15.09
2022-09-02T04:34:00.319Z,15.02
2022-09-02T04:34:35.730Z,15.05
2022-09-02T04:35:10.856Z,15.11
2022-09-02T04:35:46.192Z,15.03
2022-09-02T04:36:21.522Z,15.05
2022-09-02T04:36:57.144Z,15.05
2022-09-02T04:37:32.594Z,15.01
2022-09-02T04:38:07.611Z,15.06
2022-09-02T04:38:43.018Z,15.03
2022-09-02T04:39:18.239Z,15.01
2022-09-02T04:39:53.608Z,14.91
2022-09-02T04:40:28.569Z,15.03
2022-09-02T04:41:03.859Z,14.98
2022-09-02T04:41:39.196Z,14.94
2022-09-02T04:42:14.519Z,14.95
2022-09-02T04:42:49.577Z,14.93
2022-09-02T04:43:24.796Z,14.83
2022-09-02T04:44:00.128Z,14.91
2022-09-02T04:44:35.572Z,14.93
2022-09-02T04:45:10.910Z,14.91
2022-09-02T04:45:46.237Z,14.98
2022-09-02T04:46:29.739Z,14.93
2022-09-02T04:46:56.511Z,14.91
2022-09-02T04:47:31.834Z,14.94
2022-09-02T04:48:06.983Z,14.93
2022-09-02T04:48:42.135Z,14.94
2022-09-02T04:49:17.645Z,14.93
2022-09-02T04:49:53.074Z,14.94
2022-09-02T04:50:28.377Z,14.94
2022-09-02T04:51:03.482Z,14.93
2022-09-02T04:51:38.900Z,14.86
2022-09-02T04:52:14.131Z,14.74
2022-09-02T04:52:49.660Z,14.88
2022-09-02T04:53:25.102Z,14.83
2022-09-02T04:54:00.531Z,14.81
2022-09-02T04:54:35.646Z,14.86
2022-09-02T04:55:10.868Z,14.87
2022-09-02T04:55:46.191Z,14.84
2022-09-02T04:56:21.108Z,14.80
2022-09-02T04:56:56.349Z,14.86
2022-09-02T04:57:31.645Z,14.83
2022-09-02T04:58:07.028Z,14.91
2022-09-02T04:58:42.393Z,14.80
2022-09-02T04:59:17.835Z,14.80
2022-09-02T04:59:53.152Z,14.72
2022-09-02T05:00:28.198Z,14.80
2022-09-02T05:01:03.622Z,14.72
2022-09-02T05:01:39.183Z,14.80
2022-09-02T05:02:14.732Z,14.80
2022-09-02T05:02:49.761Z,14.78
2022-09-02T05:03:25.112Z,14.84
2022-09-02T05:04:00.503Z,14.78
2022-09-02T05:04:35.586Z,14.80
2022-09-02T05:05:10.812Z,14.75
2022-09-02T05:05:46.015Z,14.75
2022-09-02T05:06:20.937Z,14.83
2022-09-02T05:06:56.162Z,14.69
2022-09-02T05:07:31.574Z,14.67
2022-09-02T05:08:06.690Z,14.71
2022-09-02T05:08:41.897Z,14.65
2022-09-02T05:09:17.262Z,14.67
2022-09-02T05:09:52.474Z,14.71
2022-09-02T05:10:27.992Z,14.68
2022-09-02T05:11:03.208Z,14.60
2022-09-02T05:11:38.320Z,14.67
2022-09-02T05:12:13.646Z,14.68
2022-09-02T05:12:48.960Z,14.61
2022-09-02T05:13:24.597Z,14.65
2022-09-02T05:13:59.930Z,14.61
2022-09-02T05:14:35.348Z,14.61
2022-09-02T05:15:10.997Z,14.61
2022-09-02T05:15:46.139Z,14.60
2022-09-02T05:16:21.575Z,14.67
2022-09-02T05:16:56.548Z,14.67
2022-09-02T05:17:31.894Z,14.65
2022-09-02T05:18:07.420Z,14.65
2022-09-02T05:18:42.766Z,14.65
2022-09-02T05:19:18.295Z,14.64
2022-09-02T05:19:53.853Z,14.65
2022-09-02T05:20:28.956Z,14.64
2022-09-02T05:21:04.200Z,14.65
2022-09-02T05:21:39.623Z,14.65
2022-09-02T05:22:14.844Z,14.65
2022-09-02T05:22:49.861Z,14.61
2022-09-02T05:23:25.278Z,14.68
2022-09-02T05:24:00.805Z,14.61
2022-09-02T05:24:36.027Z,14.64
2022-09-02T05:25:11.068Z,14.68
2022-09-02T05:25:46.594Z,14.69
2022-09-02T05:26:22.044Z,14.64
2022-09-02T05:26:57.158Z,14.68
2022-09-02T05:27:32.372Z,14.67
2022-09-02T05:28:07.665Z,14.68
2022-09-02T05:28:42.815Z,14.65
2022-09-02T05:29:18.045Z,14.65
2022-09-02T05:29:53.164Z,14.71
2022-09-02T05:30:28.691Z,14.68
2022-09-02T05:31:03.728Z,14.74
2022-09-02T05:31:39.191Z,14.67
2022-09-02T05:32:14.617Z,14.72
2022-09-02T05:32:49.953Z,14.71
2022-09-02T05:33:25.285Z,14.72
2022-09-02T05:34:00.390Z,14.84
2022-09-02T05:34:35.530Z,14.75
2022-09-02T05:35:10.657Z,14.78
2022-09-02T05:35:45.957Z,14.80
2022-09-02T05:36:21.103Z,14.83
2022-09-02T05:36:56.412Z,14.80
2022-09-02T05:37:31.964Z,14.78
2022-09-02T05:38:07.322Z,14.74
2022-09-02T05:38:42.856Z,14.78
2022-09-02T05:39:18.085Z,14.69
2022-09-02T05:39:53.628Z,14.83
2022-09-02T05:40:29.004Z,14.84
2022-09-02T05:41:04.211Z,14.74
2022-09-02T05:41:39.271Z,14.78
2022-09-02T05:42:14.575Z,14.78
2022-09-02T05:42:49.886Z,14.74
2022-09-02T05:43:25.115Z,14.84
2022-09-02T05:44:01.403Z,14.75
2022-09-02T05:44:35.547Z,14.74
2022-09-02T05:45:10.935Z,14.91
2022-09-02T05:45:46.133Z,14.83
2022-09-02T05:46:21.396Z,14.88
2022-09-02T05:46:56.687Z,14.93
2022-09-02T05:47:31.837Z,14.94
2022-09-02T05:48:06.845Z,14.95
2022-09-02T05:48:42.410Z,15.05
2022-09-02T05:49:18.012Z,15.01
2022-09-02T05:49:53.634Z,15.01
2022-09-02T05:50:31.787Z,14.99
2022-09-02T05:51:04.164Z,15.03
2022-09-02T05:51:39.402Z,15.05
2022-09-02T05:52:14.818Z,15.09
2022-09-02T05:52:50.252Z,15.17
2022-09-02T05:53:25.739Z,15.21
2022-09-02T05:54:00.859Z,15.17
2022-09-02T05:54:36.281Z,15.23
2022-09-02T05:55:11.405Z,15.28
2022-09-02T05:55:46.628Z,15.26
2022-09-02T05:56:22.247Z,15.31
2022-09-02T05:56:57.659Z,15.30
2022-09-02T05:57:32.947Z,15.31
2022-09-02T05:58:08.235Z,15.46
2022-09-02T05:58:43.553Z,15.36
2022-09-02T05:59:18.955Z,15.48
2022-09-02T05:59:54.174Z,15.51
2022-09-02T06:00:29.395Z,15.56
2022-09-02T06:01:04.925Z,15.43
2022-09-02T06:01:40.295Z,15.52
2022-09-02T06:02:15.653Z,15.59
2022-09-02T06:02:50.795Z,15.64
2022-09-02T06:03:26.056Z,15.57
2022-09-02T06:04:01.270Z,15.74
2022-09-02T06:04:36.592Z,15.76
2022-09-02T06:05:11.933Z,15.76
2022-09-02T06:05:47.243Z,15.78
2022-09-02T06:06:22.551Z,15.79
2022-09-02T06:06:57.779Z,15.82
2022-09-02T06:07:33.116Z,15.81
2022-09-02T06:08:08.623Z,15.86
2022-09-02T06:08:43.840Z,15.94
2022-09-02T06:09:19.132Z,15.97
2022-09-02T06:09:54.370Z,16.04
2022-09-02T06:10:29.715Z,16.11
2022-09-02T06:11:05.024Z,16.06
2022-09-02T06:11:40.712Z,16.11
2022-09-02T06:12:16.410Z,16.12
2022-09-02T06:12:51.633Z,16.31
2022-09-02T06:13:27.085Z,16.23
2022-09-02T06:14:02.734Z,16.27
2022-09-02T06:14:38.571Z,16.26
2022-09-02T06:15:14.770Z,16.37
2022-09-02T06:15:50.027Z,16.37
2022-09-02T06:16:25.321Z,16.42
2022-09-02T06:17:00.701Z,16.55
2022-09-02T06:17:36.023Z,16.42
2022-09-02T06:18:11.853Z,16.62
2022-09-02T06:18:47.403Z,16.60
2022-09-02T06:19:22.873Z,16.67
2022-09-02T06:19:58.087Z,16.63
2022-09-02T06:20:33.429Z,16.68
2022-09-02T06:21:08.751Z,16.75
2022-09-02T06:21:44.283Z,16.77
2022-09-02T06:22:19.497Z,16.86
2022-09-02T06:22:54.511Z,16.81
2022-09-02T06:23:29.639Z,16.83
2022-09-02T06:24:04.774Z,16.95
2022-09-02T06:24:39.973Z,16.96
2022-09-02T06:25:15.112Z,17.04
2022-09-02T06:25:50.452Z,17.04
2022-09-02T06:26:25.917Z,17.17
2022-09-02T06:27:01.142Z,17.15
2022-09-02T06:27:36.376Z,17.08
2022-09-02T06:28:11.682Z,17.13
2022-09-02T06:28:47.241Z,17.20
2022-09-02T06:29:22.548Z,17.23
2022-09-02T06:29:57.952Z,17.22
2022-09-02T06:30:33.216Z,17.32
2022-09-02T06:31:08.625Z,17.30
2022-09-02T06:31:43.982Z,17.40
2022-09-02T06:32:19.396Z,17.46
2022-09-02T06:32:54.622Z,17.43
2022-09-02T06:33:29.836Z,17.46
2022-09-02T06:34:05.354Z,17.46
2022-09-02T06:34:40.773Z,17.54
2022-09-02T06:35:16.270Z,17.50
2022-09-02T06:35:51.793Z,17.63
2022-09-02T06:36:28.225Z,17.54
2022-09-02T06:37:02.008Z,17.73
2022-09-02T06:37:37.295Z,17.79
2022-09-02T06:38:12.521Z,17.74
2022-09-02T06:38:47.535Z,17.81
2022-09-02T06:39:22.424Z,17.87
2022-09-02T06:39:57.927Z,17.87
2022-09-02T06:40:33.232Z,17.95
2022-09-02T06:41:08.477Z,18.00
2022-09-02T06:41:43.613Z,18.00
2022-09-02T06:42:18.916Z,18.04
2022-09-02T06:42:54.142Z,18.07
2022-09-02T06:43:29.133Z,18.15
2022-09-02T06:44:07.046Z,18.12
2022-09-02T06:44:40.076Z,18.13
2022-09-02T06:45:16.361Z,18.22
2022-09-02T06:45:52.107Z,18.25
2022-09-02T06:46:27.287Z,18.27
2022-09-02T06:47:02.566Z,18.25
2022-09-02T06:47:38.164Z,18.37
2022-09-02T06:48:13.699Z,18.39
2022-09-02T06:48:49.003Z,18.42
2022-09-02T06:49:24.565Z,18.40
2022-09-02T06:50:00.218Z,18.47
2022-09-02T06:50:35.413Z,18.57
2022-09-02T06:51:10.731Z,18.57
2022-09-02T06:51:45.737Z,18.62
2022-09-02T06:52:20.849Z,18.62
2022-09-02T06:52:56.154Z,18.59
2022-09-02T06:53:31.679Z,18.62
2022-09-02T06:54:07.082Z,18.74
2022-09-02T06:54:42.627Z,18.68
2022-09-02T06:55:18.073Z,18.65
2022-09-02T06:55:53.564Z,18.72
2022-09-02T06:56:28.668Z,18.83
2022-09-02T06:57:04.179Z,18.86
2022-09-02T06:57:39.310Z,18.91
2022-09-02T06:58:14.629Z,18.98
2022-09-02T06:58:49.838Z,18.99
2022-09-02T06:59:24.948Z,18.99
2022-09-02T07:00:02.405Z,19.06
2022-09-02T07:00:36.243Z,19.18
2022-09-02T07:01:11.744Z,19.15
2022-09-02T07:01:46.939Z,19.23
2022-09-02T07:02:21.957Z,19.42
2022-09-02T07:02:57.271Z,19.55
2022-09-02T07:03:32.703Z,19.61
2022-09-02T07:04:07.901Z,19.61
2022-09-02T07:04:43.153Z,19.75
2022-09-02T07:05:18.390Z,19.79
2022-09-02T07:05:53.690Z,19.97
2022-09-02T07:06:28.913Z,20.10
2022-09-02T07:07:04.102Z,20.13
2022-09-02T07:07:39.115Z,20.24
2022-09-02T07:08:14.217Z,20.23
2022-09-02T07:08:49.436Z,20.23
2022-09-02T07:09:24.754Z,20.28
2022-09-02T07:10:00.314Z,20.33
2022-09-02T07:10:35.728Z,20.41
2022-09-02T07:11:11.043Z,20.56
2022-09-02T07:11:46.077Z,20.65
2022-09-02T07:12:21.477Z,20.59
2022-09-02T07:12:56.693Z,20.80
2022-09-02T07:13:31.896Z,20.81
2022-09-02T07:14:07.318Z,20.86
2022-09-02T07:14:42.560Z,20.86
2022-09-02T07:15:17.750Z,20.89
2022-09-02T07:15:53.000Z,21.01
2022-09-02T07:16:28.258Z,21.13
2022-09-02T07:17:03.646Z,21.21
2022-09-02T07:17:39.142Z,21.29
2022-09-02T07:18:14.344Z,21.24
2022-09-02T07:18:49.565Z,21.20
2022-09-02T07:19:24.965Z,21.19
2022-09-02T07:20:00.434Z,21.30
2022-09-02T07:20:35.805Z,21.24
2022-09-02T07:21:11.300Z,21.50
2022-09-02T07:21:46.812Z,21.53
2022-09-02T07:22:22.023Z,21.59
2022-09-02T07:22:57.348Z,21.66
2022-09-02T07:23:32.762Z,21.71
2022-09-02T07:24:08.179Z,21.72
2022-09-02T07:24:43.411Z,21.90
2022-09-02T07:25:19.150Z,21.83
2022-09-02T07:25:54.662Z,21.91
2022-09-02T07:26:29.975Z,21.95
2022-09-02T07:27:05.182Z,21.94
2022-09-02T07:27:40.505Z,21.95
2022-09-02T07:28:15.482Z,22.01
2022-09-02T07:28:50.808Z,21.92
2022-09-02T07:29:25.906Z,21.81
2022-09-02T07:30:01.247Z,21.72
2022-09-02T07:30:36.747Z,21.78
2022-09-02T07:31:12.156Z,21.88
2022-09-02T07:31:47.425Z,21.92
2022-09-02T07:32:22.898Z,21.99
2022-09-02T07:32:58.198Z,22.16
2022-09-02T07:33:33.813Z,22.27
2022-09-02T07:34:09.246Z,22.34
2022-09-02T07:34:44.774Z,22.47